Connersville, Kentucky
Current Conditions -  °F | °C
As of 12:35 AM on Monday 22 Dec 2014 (Local Time) from KIOB Reporting Station
Overcast Overcast  
Wind Chill: 26°   Ceiling: 4600
Heat Index: 32°   Visibility: 10mi
Dew Point: 28°   Wind: 6mph
Humidity: 87%   Direction: 130°SE
Pressure: 30.08"   Gusts: NA
Location:  38.4145°N, 84.2859°W
Report Text: KIOB 220535Z AUTO 13005KT 10SM OVC046 00/M02 A3008 RMK AO2
Loading
Personal Weather Stations






























Interactive Weather Map New forecast layout! Learn more

10-Day Weather Forecast

Advertisements
Track Severe Weather on mobile